createdAt,value
2019-01-31T00:02:33.646Z,49.08
2019-01-31T00:05:35.550Z,49.15
2019-01-31T00:08:45.903Z,48.98
2019-01-31T00:11:51.936Z,49.04
2019-01-31T00:14:59.176Z,49.06
2019-01-31T00:18:06.494Z,48.79
2019-01-31T00:21:00.977Z,48.81
2019-01-31T00:24:08.558Z,48.94
2019-01-31T00:27:09.421Z,48.65
2019-01-31T00:30:16.724Z,48.89
2019-01-31T00:33:24.011Z,48.98
2019-01-31T00:36:31.312Z,48.80
2019-01-31T00:39:38.592Z,48.54
2019-01-31T00:42:45.999Z,48.55
2019-01-31T00:45:53.333Z,48.79
2019-01-31T00:49:00.636Z,48.22
2019-01-31T00:52:07.979Z,48.69
2019-01-31T00:55:03.352Z,48.57
2019-01-31T00:58:10.694Z,48.64
2019-01-31T01:01:05.628Z,48.44
2019-01-31T01:04:06.668Z,48.09
2019-01-31T01:06:58.697Z,48.59
2019-01-31T01:10:06.018Z,48.53
2019-01-31T01:13:13.318Z,48.80
2019-01-31T01:15:52.253Z,48.89
2019-01-31T01:18:29.415Z,49.31
2019-01-31T01:21:23.305Z,49.85
2019-01-31T01:24:01.399Z,49.91
2019-01-31T01:26:53.970Z,50.13
2019-01-31T01:29:47.328Z,50.55
2019-01-31T01:32:54.756Z,50.79
2019-01-31T01:36:02.036Z,51.17
2019-01-31T01:39:18.950Z,51.38
2019-01-31T01:42:06.113Z,51.16
2019-01-31T01:44:59.334Z,51.01
2019-01-31T01:47:53.216Z,50.98
2019-01-31T01:51:00.470Z,50.44
2019-01-31T01:53:56.909Z,50.26
2019-01-31T01:57:04.170Z,50.11
2019-01-31T02:00:11.491Z,50.22
2019-01-31T02:03:18.748Z,50.85
2019-01-31T02:06:26.049Z,51.07
2019-01-31T02:09:33.385Z,50.23
2019-01-31T02:12:40.862Z,49.96
2019-01-31T02:15:48.167Z,49.80
2019-01-31T02:18:55.419Z,50.53
2019-01-31T02:22:02.733Z,51.39
2019-01-31T02:24:38.530Z,51.97
2019-01-31T02:27:46.063Z,51.67
2019-01-31T02:30:53.364Z,51.03
2019-01-31T02:33:49.183Z,51.13
2019-01-31T02:36:56.529Z,51.03
2019-01-31T02:40:04.051Z,51.03
2019-01-31T02:42:55.439Z,50.61
2019-01-31T02:45:57.574Z,50.12
2019-01-31T02:49:05.266Z,50.11
2019-01-31T02:51:57.759Z,49.99
2019-01-31T02:54:48.962Z,50.64
2019-01-31T02:57:56.585Z,50.21
2019-01-31T03:00:52.121Z,49.89
2019-01-31T03:03:59.466Z,49.96
2019-01-31T03:06:51.647Z,49.91
2019-01-31T03:09:54.637Z,49.70
2019-01-31T03:12:55.156Z,50.08
2019-01-31T03:15:32.249Z,50.63
2019-01-31T03:18:29.050Z,50.83
2019-01-31T03:21:36.295Z,51.01
2019-01-31T03:24:29.399Z,51.13
2019-01-31T03:27:36.650Z,51.09
2019-01-31T03:30:44.147Z,50.98
2019-01-31T03:33:51.395Z,51.52
2019-01-31T03:36:49.755Z,51.01
2019-01-31T03:39:44.717Z,51.02
2019-01-31T03:42:46.661Z,50.49
2019-01-31T03:45:39.081Z,50.42
2019-01-31T03:48:46.486Z,50.41
2019-01-31T03:51:47.681Z,50.52
2019-01-31T03:54:55.345Z,49.98
2019-01-31T03:57:48.370Z,50.26
2019-01-31T04:00:55.618Z,50.22
2019-01-31T04:03:48.364Z,50.64
2019-01-31T04:06:56.222Z,50.98
2019-01-31T04:09:25.466Z,50.45
2019-01-31T04:11:54.700Z,50.70
2019-01-31T04:14:27.189Z,50.88
2019-01-31T04:16:54.832Z,51.08
2019-01-31T04:19:24.093Z,51.38
2019-01-31T04:21:53.265Z,51.27
2019-01-31T04:24:22.494Z,51.38
2019-01-31T04:26:51.692Z,51.60
2019-01-31T04:29:20.946Z,51.62
2019-01-31T04:31:50.124Z,51.33
2019-01-31T04:34:19.309Z,51.58
2019-01-31T04:36:48.543Z,51.05
2019-01-31T04:39:17.724Z,51.28
2019-01-31T04:41:46.951Z,51.21
2019-01-31T04:44:16.132Z,51.05
2019-01-31T04:46:45.365Z,51.19
2019-01-31T04:49:14.549Z,51.27
2019-01-31T04:51:44.154Z,51.04
2019-01-31T04:54:13.335Z,50.96
2019-01-31T04:56:42.674Z,50.75
2019-01-31T04:59:11.853Z,50.85
2019-01-31T05:01:41.077Z,50.36
2019-01-31T05:04:10.550Z,50.14
2019-01-31T05:06:39.792Z,50.06
2019-01-31T05:09:09.078Z,49.67
2019-01-31T05:11:38.559Z,49.74
2019-01-31T05:14:07.712Z,49.35
2019-01-31T05:16:36.940Z,49.28
2019-01-31T05:19:06.120Z,49.12
2019-01-31T05:21:35.360Z,48.90
2019-01-31T05:24:04.533Z,49.30
2019-01-31T05:26:34.048Z,49.28
2019-01-31T05:29:03.311Z,49.24
2019-01-31T05:31:32.508Z,49.17
2019-01-31T05:34:01.746Z,48.96
2019-01-31T05:36:50.000Z,49.34
2019-01-31T05:39:19.232Z,49.85
2019-01-31T05:41:48.407Z,49.86
2019-01-31T05:44:17.641Z,49.81
2019-01-31T05:46:46.811Z,49.86
2019-01-31T05:49:16.059Z,49.96
2019-01-31T05:51:45.580Z,49.79
2019-01-31T05:54:15.085Z,49.65
2019-01-31T05:56:44.312Z,49.92
2019-01-31T05:59:13.510Z,50.19
2019-01-31T06:01:42.741Z,50.40
2019-01-31T06:04:11.929Z,50.53
2019-01-31T06:06:41.155Z,50.83
2019-01-31T06:09:10.689Z,51.11
2019-01-31T06:11:40.108Z,51.81
2019-01-31T06:14:09.301Z,51.79
2019-01-31T06:16:38.587Z,51.81
2019-01-31T06:19:07.767Z,52.02
2019-01-31T06:21:37.291Z,51.99
2019-01-31T06:24:06.466Z,52.54
2019-01-31T06:26:35.706Z,52.11
2019-01-31T06:29:04.887Z,52.17
2019-01-31T06:31:34.149Z,51.85
2019-01-31T06:34:03.323Z,51.85
2019-01-31T06:36:32.501Z,51.84
2019-01-31T06:39:02.127Z,52.15
2019-01-31T06:41:31.307Z,51.82
2019-01-31T06:44:00.547Z,51.51
2019-01-31T06:46:30.078Z,51.48
2019-01-31T06:48:59.691Z,52.21
2019-01-31T06:51:28.870Z,51.63
2019-01-31T06:53:58.099Z,51.33
2019-01-31T06:56:27.280Z,50.87
2019-01-31T06:58:56.521Z,51.40
2019-01-31T07:01:25.724Z,50.92
2019-01-31T07:03:54.917Z,50.84
2019-01-31T07:06:24.144Z,50.74
2019-01-31T07:08:53.321Z,50.84
2019-01-31T07:11:29.769Z,50.69
2019-01-31T07:16:28.573Z,50.32
2019-01-31T07:19:16.738Z,51.34
2019-01-31T07:21:45.966Z,50.54
2019-01-31T07:24:15.526Z,50.19
2019-01-31T07:26:45.089Z,50.16
2019-01-31T07:29:14.256Z,50.00
2019-01-31T07:31:43.789Z,50.03
2019-01-31T07:34:32.018Z,50.09
2019-01-31T07:37:01.193Z,50.25
2019-01-31T07:39:30.428Z,50.30
2019-01-31T07:41:59.596Z,50.16
2019-01-31T07:44:28.845Z,49.56
2019-01-31T07:46:58.022Z,50.26
2019-01-31T07:49:27.253Z,50.00
2019-01-31T07:51:56.430Z,49.77
2019-01-31T07:54:25.660Z,49.54
2019-01-31T07:56:55.177Z,49.34
2019-01-31T07:59:24.433Z,48.97
2019-01-31T08:01:53.630Z,48.90
2019-01-31T08:04:22.862Z,49.13
2019-01-31T08:06:52.044Z,48.95
2019-01-31T08:09:21.280Z,49.29
2019-01-31T08:11:52.693Z,49.27
2019-01-31T08:14:21.657Z,49.05
2019-01-31T08:16:51.006Z,48.94
2019-01-31T08:19:20.561Z,48.90
2019-01-31T08:21:49.805Z,49.02
2019-01-31T08:24:18.984Z,48.67
2019-01-31T08:26:48.206Z,48.69
2019-01-31T08:29:17.382Z,48.45
2019-01-31T08:31:46.612Z,48.21
2019-01-31T08:34:16.158Z,47.98
2019-01-31T08:36:45.522Z,48.07
2019-01-31T08:39:14.682Z,47.86
2019-01-31T08:41:43.862Z,47.50
2019-01-31T08:44:13.197Z,47.47
2019-01-31T08:46:42.336Z,47.85
2019-01-31T08:49:11.626Z,47.18
2019-01-31T08:51:41.667Z,47.29
2019-01-31T08:54:10.900Z,47.23
2019-01-31T08:56:40.075Z,46.72
2019-01-31T08:59:09.311Z,46.49
2019-01-31T09:01:38.483Z,46.20
2019-01-31T09:04:29.214Z,46.17
2019-01-31T09:06:58.411Z,45.85
2019-01-31T09:09:27.590Z,45.88
2019-01-31T09:11:56.873Z,45.37
2019-01-31T09:14:26.085Z,46.11
2019-01-31T09:17:16.318Z,46.21
2019-01-31T09:19:45.495Z,46.55
2019-01-31T09:22:52.795Z,46.83
2019-01-31T09:25:54.901Z,46.56
2019-01-31T09:29:03.753Z,46.47
2019-01-31T09:32:11.000Z,46.34
2019-01-31T09:34:51.335Z,45.49
2019-01-31T09:37:58.555Z,45.44
2019-01-31T09:41:08.482Z,47.00
2019-01-31T09:44:14.850Z,44.69
2019-01-31T09:47:17.526Z,44.62
2019-01-31T09:50:24.859Z,43.99
2019-01-31T09:53:32.393Z,44.01
2019-01-31T09:56:39.698Z,43.65
2019-01-31T09:59:46.956Z,43.11
2019-01-31T10:02:54.665Z,42.92
2019-01-31T10:06:01.978Z,42.83
2019-01-31T10:08:53.303Z,42.79
2019-01-31T10:12:00.674Z,43.11
2019-01-31T10:15:07.951Z,43.10
2019-01-31T10:18:15.264Z,42.84
2019-01-31T10:21:07.766Z,42.45
2019-01-31T10:23:59.113Z,42.94
2019-01-31T10:27:06.514Z,43.02
2019-01-31T10:30:14.980Z,42.79
2019-01-31T10:33:22.820Z,42.75
2019-01-31T10:36:30.102Z,42.59
2019-01-31T10:39:37.790Z,41.39
2019-01-31T10:42:29.229Z,41.11
2019-01-31T10:45:36.580Z,41.33
2019-01-31T10:48:28.842Z,40.51
2019-01-31T10:51:36.154Z,40.42
2019-01-31T10:54:43.483Z,40.52
2019-01-31T10:57:50.739Z,40.75
2019-01-31T11:00:58.061Z,40.39
2019-01-31T11:04:05.311Z,39.79
2019-01-31T11:07:12.619Z,39.39
2019-01-31T11:10:19.875Z,39.36
2019-01-31T11:13:27.251Z,40.58
2019-01-31T11:16:22.041Z,39.97
2019-01-31T11:19:29.291Z,39.47
2019-01-31T11:22:31.376Z,39.71
2019-01-31T11:25:44.694Z,39.04
2019-01-31T11:28:37.768Z,39.16
2019-01-31T11:31:16.840Z,39.52
2019-01-31T11:34:32.643Z,38.82
2019-01-31T11:37:33.191Z,38.73
2019-01-31T11:40:30.109Z,39.54
2019-01-31T11:43:37.431Z,40.22
2019-01-31T11:46:44.694Z,39.12
2019-01-31T11:49:52.050Z,38.63
2019-01-31T11:52:44.908Z,37.31
2019-01-31T11:55:52.493Z,38.07
2019-01-31T11:58:47.501Z,37.80
2019-01-31T12:01:16.744Z,38.24
2019-01-31T12:03:46.371Z,37.72
2019-01-31T12:06:15.793Z,37.66
2019-01-31T12:08:45.344Z,37.73
2019-01-31T12:11:14.661Z,38.38
2019-01-31T12:13:43.919Z,38.03
2019-01-31T12:16:13.411Z,38.46
2019-01-31T12:19:22.342Z,38.42
2019-01-31T12:21:51.575Z,38.73
2019-01-31T12:24:20.756Z,38.89
2019-01-31T12:27:10.462Z,39.56
2019-01-31T12:29:39.739Z,39.81
2019-01-31T12:32:09.253Z,39.32
2019-01-31T12:34:38.437Z,38.57
2019-01-31T12:40:02.743Z,38.03
2019-01-31T12:42:32.111Z,37.35
2019-01-31T12:45:01.292Z,36.95
2019-01-31T12:47:30.588Z,36.80
2019-01-31T12:49:59.818Z,37.72
2019-01-31T12:52:29.005Z,36.36
2019-01-31T12:54:58.278Z,36.31
2019-01-31T12:57:27.457Z,35.49
2019-01-31T12:59:57.054Z,35.39
2019-01-31T13:02:26.233Z,35.70
2019-01-31T13:04:55.761Z,36.41
2019-01-31T13:07:24.947Z,36.22
2019-01-31T13:09:54.281Z,36.16
2019-01-31T13:12:23.519Z,35.86
2019-01-31T13:14:52.755Z,36.60
2019-01-31T13:17:21.941Z,36.05
2019-01-31T13:19:51.198Z,35.33
2019-01-31T13:22:20.762Z,35.49
2019-01-31T13:24:50.045Z,35.65
2019-01-31T13:27:19.276Z,35.77
2019-01-31T13:29:48.469Z,35.66
2019-01-31T13:32:17.775Z,35.46
2019-01-31T13:34:46.946Z,35.89
2019-01-31T13:37:16.195Z,36.08
2019-01-31T13:43:13.018Z,35.95
2019-01-31T13:45:42.284Z,35.91
2019-01-31T13:48:13.864Z,35.74
2019-01-31T13:50:43.088Z,36.29
2019-01-31T13:53:51.780Z,36.46
2019-01-31T13:56:20.957Z,36.21
2019-01-31T13:58:50.302Z,36.60
2019-01-31T14:01:19.530Z,36.82
2019-01-31T14:03:48.786Z,36.73
2019-01-31T14:06:18.455Z,36.14
2019-01-31T14:11:22.462Z,35.45
2019-01-31T14:13:51.785Z,36.24
2019-01-31T14:16:21.019Z,36.21
2019-01-31T14:18:53.284Z,36.61
2019-01-31T14:21:21.172Z,36.74
2019-01-31T14:23:50.346Z,37.25
2019-01-31T14:26:19.585Z,36.82
2019-01-31T14:28:48.752Z,37.41
2019-01-31T14:31:18.358Z,36.97
2019-01-31T14:33:47.543Z,37.23
2019-01-31T14:36:16.791Z,37.78
2019-01-31T14:38:45.970Z,37.12
2019-01-31T14:41:16.621Z,37.20
2019-01-31T14:43:46.184Z,37.21
2019-01-31T14:46:15.426Z,36.81
2019-01-31T14:48:44.610Z,36.82
2019-01-31T14:51:14.183Z,37.19
2019-01-31T14:53:43.364Z,37.29
2019-01-31T14:56:12.607Z,37.07
2019-01-31T14:58:41.783Z,37.59
2019-01-31T15:01:11.106Z,37.82
2019-01-31T15:03:40.294Z,37.72
2019-01-31T15:06:09.524Z,37.51
2019-01-31T15:08:39.030Z,37.61
2019-01-31T15:11:08.261Z,37.46
2019-01-31T15:13:37.491Z,37.40
2019-01-31T15:18:40.895Z,37.48
2019-01-31T15:21:10.523Z,37.74
2019-01-31T15:23:39.790Z,38.04
2019-01-31T15:26:09.353Z,37.91
2019-01-31T15:28:38.588Z,38.56
2019-01-31T15:31:07.766Z,38.80
2019-01-31T15:33:37.006Z,38.91
2019-01-31T15:36:06.189Z,39.25
2019-01-31T15:38:35.423Z,39.49
2019-01-31T15:41:43.990Z,39.57
2019-01-31T15:44:13.533Z,39.78
2019-01-31T15:46:42.721Z,40.27
2019-01-31T15:49:11.951Z,40.66
2019-01-31T15:51:41.127Z,40.45
2019-01-31T15:57:16.157Z,40.87
2019-01-31T15:59:37.066Z,40.63
2019-01-31T16:02:06.365Z,41.06
2019-01-31T16:04:35.615Z,40.88
2019-01-31T16:07:04.820Z,41.00
2019-01-31T16:09:33.997Z,40.99
2019-01-31T16:12:03.284Z,41.24
2019-01-31T16:14:32.463Z,41.33
2019-01-31T16:17:01.756Z,41.24
2019-01-31T16:19:30.962Z,41.25
2019-01-31T16:22:00.212Z,41.07
2019-01-31T16:24:29.410Z,41.02
2019-01-31T16:26:58.638Z,41.22
2019-01-31T16:29:28.193Z,41.01
2019-01-31T16:31:57.421Z,41.14
2019-01-31T16:34:26.598Z,42.04
2019-01-31T16:36:55.835Z,41.57
2019-01-31T16:39:25.016Z,41.39
2019-01-31T16:41:54.267Z,41.42
2019-01-31T16:44:23.975Z,41.32
2019-01-31T16:46:54.256Z,41.57
2019-01-31T16:49:23.485Z,41.63
2019-01-31T16:52:15.910Z,41.68
2019-01-31T16:54:45.086Z,41.70
2019-01-31T16:57:14.330Z,41.72
2019-01-31T16:59:43.545Z,41.75
2019-01-31T17:02:12.816Z,41.98
2019-01-31T17:04:42.056Z,42.14
2019-01-31T17:07:11.623Z,41.71
2019-01-31T17:09:40.987Z,41.88
2019-01-31T17:12:10.241Z,42.04
2019-01-31T17:14:39.483Z,42.12
2019-01-31T17:17:09.022Z,42.49
2019-01-31T17:19:38.268Z,42.24
2019-01-31T17:22:07.489Z,42.47
2019-01-31T17:24:36.670Z,42.58
2019-01-31T17:27:06.015Z,42.78
2019-01-31T17:29:35.188Z,43.02
2019-01-31T17:32:04.420Z,43.12
2019-01-31T17:34:33.600Z,42.88
2019-01-31T17:37:03.625Z,43.56
2019-01-31T17:39:32.802Z,43.33
2019-01-31T17:42:04.285Z,43.71
2019-01-31T17:44:33.135Z,43.26
2019-01-31T17:47:02.376Z,43.50
2019-01-31T17:49:31.558Z,43.31
2019-01-31T17:52:00.734Z,43.40
2019-01-31T17:54:29.978Z,43.23
2019-01-31T17:56:59.154Z,43.08
2019-01-31T17:59:28.379Z,43.11
2019-01-31T18:01:57.547Z,43.38
2019-01-31T18:04:26.777Z,43.33
2019-01-31T18:06:55.979Z,43.46
2019-01-31T18:09:25.211Z,43.75
2019-01-31T18:11:54.441Z,43.87
2019-01-31T18:14:24.051Z,44.34
2019-01-31T18:16:53.248Z,44.63
2019-01-31T18:19:22.508Z,45.15
2019-01-31T18:21:51.753Z,45.40
2019-01-31T18:24:21.219Z,45.66
2019-01-31T18:26:50.470Z,45.94
2019-01-31T18:29:19.945Z,45.78
2019-01-31T18:31:49.189Z,45.32
2019-01-31T18:34:18.382Z,45.27
2019-01-31T18:36:48.288Z,45.38
2019-01-31T18:39:17.466Z,45.51
2019-01-31T18:41:46.832Z,45.62
2019-01-31T18:44:16.022Z,45.72
2019-01-31T18:46:45.269Z,46.00
2019-01-31T18:49:14.472Z,45.84
2019-01-31T18:51:43.717Z,45.87
2019-01-31T18:54:19.107Z,45.91
2019-01-31T18:56:48.778Z,45.92
2019-01-31T18:59:17.952Z,46.05
2019-01-31T19:01:47.131Z,46.40
2019-01-31T19:04:16.380Z,46.67
2019-01-31T19:06:45.578Z,46.46
2019-01-31T19:09:14.814Z,46.69
2019-01-31T19:11:43.989Z,47.01
2019-01-31T19:14:14.464Z,46.51
2019-01-31T19:16:44.178Z,46.96
2019-01-31T19:19:13.408Z,46.96
2019-01-31T19:21:42.626Z,47.20
2019-01-31T19:24:11.864Z,46.94
2019-01-31T19:26:41.083Z,46.70
2019-01-31T19:29:10.327Z,46.57
2019-01-31T19:31:40.366Z,47.05
2019-01-31T19:34:10.601Z,46.86
2019-01-31T19:36:39.792Z,47.05
2019-01-31T19:39:48.832Z,47.39
2019-01-31T19:42:18.005Z,47.48
2019-01-31T19:44:47.263Z,47.02
2019-01-31T19:47:16.500Z,46.37
2019-01-31T19:50:28.350Z,46.09
2019-01-31T19:56:06.434Z,46.80
2019-01-31T19:58:35.682Z,46.50
2019-01-31T20:01:25.476Z,46.22
2019-01-31T20:03:54.668Z,47.04
2019-01-31T20:06:24.034Z,46.53
2019-01-31T20:08:53.807Z,46.98
2019-01-31T20:11:24.532Z,47.12
2019-01-31T20:13:53.794Z,46.36
2019-01-31T20:16:29.180Z,46.07
2019-01-31T20:19:21.047Z,45.98
2019-01-31T20:22:06.512Z,45.77
2019-01-31T20:27:19.237Z,45.82
2019-01-31T20:29:48.506Z,45.78
2019-01-31T20:32:18.329Z,45.77
2019-01-31T20:34:47.852Z,45.71
2019-01-31T20:37:17.094Z,45.48
2019-01-31T20:39:46.430Z,45.68
2019-01-31T20:42:15.849Z,45.85
2019-01-31T20:44:45.226Z,45.95
2019-01-31T20:47:54.436Z,46.14
2019-01-31T20:50:25.828Z,45.90
2019-01-31T20:55:50.604Z,45.82
2019-01-31T20:58:20.131Z,46.92
2019-01-31T21:00:49.740Z,46.27
2019-01-31T21:03:19.255Z,46.24
2019-01-31T21:05:48.483Z,46.71
2019-01-31T21:08:17.667Z,46.92
2019-01-31T21:10:46.907Z,46.69
2019-01-31T21:13:16.235Z,46.98
2019-01-31T21:15:45.460Z,46.61
2019-01-31T21:18:14.633Z,46.69
2019-01-31T21:20:43.867Z,47.22
2019-01-31T21:23:52.705Z,46.76
2019-01-31T21:26:24.651Z,46.92
2019-01-31T21:28:52.833Z,46.64
2019-01-31T21:31:22.077Z,46.82
2019-01-31T21:33:51.258Z,47.06
2019-01-31T21:36:20.435Z,46.87
2019-01-31T21:38:49.669Z,47.01
2019-01-31T21:41:19.193Z,47.41
2019-01-31T21:43:48.425Z,47.04
2019-01-31T21:46:17.600Z,46.83
2019-01-31T21:48:46.834Z,47.68
2019-01-31T21:51:16.004Z,48.21
2019-01-31T21:53:45.238Z,47.54
2019-01-31T21:56:14.411Z,47.00
2019-01-31T21:58:43.635Z,47.01
2019-01-31T22:01:12.887Z,47.42
2019-01-31T22:03:42.491Z,48.18
2019-01-31T22:06:21.994Z,47.81
2019-01-31T22:08:43.231Z,48.09
2019-01-31T22:11:12.448Z,47.47
2019-01-31T22:13:41.675Z,47.54
2019-01-31T22:16:10.902Z,47.85
2019-01-31T22:18:40.376Z,47.32
2019-01-31T22:21:09.612Z,47.45
2019-01-31T22:23:39.139Z,47.02
2019-01-31T22:26:08.383Z,47.11
2019-01-31T22:28:37.596Z,47.47
2019-01-31T22:31:06.779Z,47.54
2019-01-31T22:33:36.009Z,47.63
2019-01-31T22:36:44.625Z,47.09
2019-01-31T22:39:14.075Z,47.40
2019-01-31T22:41:43.253Z,47.50
2019-01-31T22:44:12.492Z,47.58
2019-01-31T22:46:41.709Z,47.92
2019-01-31T22:49:10.943Z,47.64
2019-01-31T22:51:40.135Z,47.65
2019-01-31T22:54:09.652Z,47.64
2019-01-31T22:56:38.826Z,47.38
2019-01-31T22:59:08.069Z,47.31
2019-01-31T23:04:45.854Z,47.03
2019-01-31T23:07:15.134Z,47.38
2019-01-31T23:09:44.568Z,47.29
2019-01-31T23:12:13.799Z,47.31
2019-01-31T23:14:43.034Z,47.40
2019-01-31T23:17:12.221Z,47.71
2019-01-31T23:19:41.769Z,47.54
2019-01-31T23:22:10.983Z,47.25
2019-01-31T23:24:40.221Z,47.18
2019-01-31T23:27:09.403Z,47.40
2019-01-31T23:29:38.651Z,47.33
2019-01-31T23:32:07.950Z,47.44
2019-01-31T23:34:37.237Z,47.58
2019-01-31T23:37:06.459Z,47.98
2019-01-31T23:39:35.647Z,48.17
2019-01-31T23:42:04.983Z,48.08
2019-01-31T23:44:34.180Z,48.24
2019-01-31T23:47:03.430Z,48.20
2019-01-31T23:49:51.700Z,48.33
2019-01-31T23:52:21.098Z,48.70
2019-01-31T23:54:50.311Z,48.58
2019-01-31T23:57:19.549Z,48.47
2019-01-31T23:59:48.727Z,48.46
